Time;durP1;ratioP1;P1;durP2;ratioP2;P2;SDS_P1;SDS_P2;PMS_P1;PMS_P2;Temp;Humidity;BMP_temperature;BMP_pressure;BME280_temperature;BME280_humidity;BME280_pressure;Samples;Min_cycle;Max_cycle;Signal;HPM_P1;HPM_P2
2022/08/02 00:01:26;;;;;;;12.95;4.95;;;11.70;99.90;;;;;;5010651;28;20092;-68
2022/08/02 00:03:52;;;;;;;8.52;4.65;;;11.70;99.90;;;;;;4995625;28;20406;-69
2022/08/02 00:06:18;;;;;;;6.25;4.38;;;11.70;99.90;;;;;;5011064;28;20056;-70
2022/08/02 00:08:44;;;;;;;9.05;4.40;;;11.70;99.90;;;;;;4999442;28;20057;-70
2022/08/02 00:11:10;;;;;;;11.07;4.72;;;11.80;99.90;;;;;;5012068;28;20057;-68
2022/08/02 00:13:36;;;;;;;8.93;4.90;;;11.80;99.90;;;;;;4994106;28;20077;-68
2022/08/02 00:16:03;;;;;;;9.02;4.70;;;11.90;99.90;;;;;;4993309;28;20484;-67
2022/08/02 00:18:30;;;;;;;7.03;4.53;;;11.90;99.90;;;;;;4995089;28;20046;-68
2022/08/02 00:20:56;;;;;;;11.40;5.10;;;11.90;99.90;;;;;;5011733;28;20065;-68
2022/08/02 00:23:22;;;;;;;12.45;4.90;;;11.90;99.90;;;;;;5011388;28;20056;-68
2022/08/02 00:25:48;;;;;;;8.80;5.18;;;11.90;99.90;;;;;;5009393;28;20046;-71
2022/08/02 00:28:14;;;;;;;9.07;5.07;;;11.90;99.90;;;;;;5010797;28;20480;-68
2022/08/02 00:30:40;;;;;;;8.75;4.38;;;11.90;99.90;;;;;;5010878;28;20107;-69
2022/08/02 00:33:07;;;;;;;10.80;4.80;;;12.00;99.90;;;;;;5013453;28;20045;-68
2022/08/02 00:35:34;;;;;;;8.15;4.63;;;12.00;99.90;;;;;;4998906;28;20057;-68
2022/08/02 00:38:01;;;;;;;10.77;4.70;;;12.00;99.90;;;;;;4994115;28;20086;-69
2022/08/02 00:40:27;;;;;;;9.40;4.20;;;12.00;99.90;;;;;;5009285;28;20057;-68
2022/08/02 00:43:06;;;;;;;9.50;4.57;;;12.00;99.90;;;;;;5010935;28;20096;-70
2022/08/02 00:45:34;;;;;;;10.65;4.50;;;12.10;99.90;;;;;;5006751;28;20137;-73
2022/08/02 00:48:01;;;;;;;9.77;4.90;;;12.10;99.90;;;;;;5009722;28;20121;-68
2022/08/02 00:50:28;;;;;;;10.45;4.78;;;12.10;99.90;;;;;;5011135;28;20370;-68
2022/08/02 00:52:54;;;;;;;11.20;5.03;;;12.10;99.90;;;;;;5011489;28;20050;-68
2022/08/02 00:55:20;;;;;;;8.77;4.60;;;12.10;99.90;;;;;;5010798;28;20053;-68
2022/08/02 00:57:47;;;;;;;10.35;5.40;;;12.10;99.90;;;;;;5010112;28;20124;-67
2022/08/02 01:00:14;;;;;;;11.60;5.13;;;12.10;99.90;;;;;;5011499;28;20054;-68
2022/08/02 01:02:40;;;;;;;7.53;4.47;;;12.10;99.90;;;;;;4994462;28;20053;-67
2022/08/02 01:05:07;;;;;;;9.23;5.10;;;12.10;99.90;;;;;;4994379;28;20480;-69
2022/08/02 01:07:33;;;;;;;9.60;4.80;;;12.10;99.90;;;;;;5009193;28;20514;-68
2022/08/02 01:09:59;;;;;;;11.57;5.32;;;12.10;99.90;;;;;;5011091;28;20096;-68
2022/08/02 01:12:26;;;;;;;13.00;5.63;;;12.10;99.90;;;;;;4991942;28;20131;-68
2022/08/02 01:15:04;;;;;;;11.65;5.13;;;12.00;99.90;;;;;;5011008;28;20046;-68
2022/08/02 01:17:45;;;;;;;10.50;5.63;;;12.00;99.90;;;;;;5022996;28;20037;-68
2022/08/02 01:20:33;;;;;;;9.75;5.15;;;12.00;99.90;;;;;;5006963;28;20129;-69
2022/08/02 01:23:12;;;;;;;10.90;5.25;;;11.90;99.90;;;;;;5010206;28;20455;-69
2022/08/02 01:25:44;;;;;;;8.13;4.82;;;11.90;99.90;;;;;;5010001;28;20092;-68
2022/08/02 01:28:15;;;;;;;10.40;5.25;;;11.90;99.90;;;;;;5017843;28;20137;-67
2022/08/02 01:30:44;;;;;;;7.40;5.18;;;11.80;99.90;;;;;;4997321;28;20082;-67
2022/08/02 01:33:15;;;;;;;9.88;4.88;;;11.80;99.90;;;;;;4977270;28;20053;-68
2022/08/02 01:35:46;;;;;;;6.55;4.30;;;11.80;99.90;;;;;;5019566;28;20041;-68
2022/08/02 01:38:29;;;;;;;13.65;5.13;;;11.70;99.90;;;;;;5013587;28;20460;-68
2022/08/02 01:40:59;;;;;;;16.00;5.30;;;11.70;99.90;;;;;;4989376;28;20081;-68
2022/08/02 01:43:28;;;;;;;8.90;4.82;;;11.70;99.90;;;;;;4980459;28;20068;-68
2022/08/02 01:45:55;;;;;;;10.10;5.63;;;11.70;99.90;;;;;;4993492;28;20243;-68
2022/08/02 01:48:23;;;;;;;11.23;5.45;;;11.60;99.90;;;;;;4993187;28;20038;-68
2022/08/02 01:50:50;;;;;;;12.40;5.25;;;11.60;99.90;;;;;;5006826;28;20439;-70
2022/08/02 01:53:19;;;;;;;10.60;4.78;;;11.60;99.90;;;;;;5009832;28;20046;-67
2022/08/02 01:55:48;;;;;;;11.25;5.35;;;11.60;99.90;;;;;;4993232;28;20049;-68
2022/08/02 01:58:18;;;;;;;8.10;4.93;;;11.50;99.90;;;;;;5010878;28;20519;-68
2022/08/02 02:00:46;;;;;;;10.15;5.15;;;11.50;99.90;;;;;;4992605;28;20067;-69
2022/08/02 02:03:18;;;;;;;13.00;5.22;;;11.50;99.90;;;;;;5008653;28;20046;-68
2022/08/02 02:05:47;;;;;;;9.70;4.93;;;11.50;99.90;;;;;;5010492;28;20077;-68
2022/08/02 02:08:14;;;;;;;8.30;5.25;;;11.50;99.90;;;;;;4994584;28;20454;-68
2022/08/02 02:10:44;;;;;;;9.05;5.18;;;11.50;99.90;;;;;;4992000;28;20050;-68
2022/08/02 02:13:13;;;;;;;8.38;5.20;;;11.50;99.90;;;;;;5026483;28;20104;-68
2022/08/02 02:15:45;;;;;;;15.63;5.80;;;11.50;99.90;;;;;;5026790;28;20400;-67
2022/08/02 02:18:17;;;;;;;9.13;5.50;;;11.60;99.90;;;;;;5009965;28;20049;-68
2022/08/02 02:20:43;;;;;;;8.57;5.70;;;11.50;99.90;;;;;;5008845;28;20046;-70
2022/08/02 02:23:10;;;;;;;17.23;5.80;;;11.50;99.90;;;;;;5008184;28;20053;-67
2022/08/02 02:25:39;;;;;;;13.27;5.60;;;11.50;99.90;;;;;;4994018;28;20046;-67
2022/08/02 02:28:10;;;;;;;15.40;6.20;;;11.50;99.90;;;;;;5010417;28;20064;-68
2022/08/02 02:30:41;;;;;;;17.25;6.13;;;11.50;99.90;;;;;;5009289;28;20054;-69
2022/08/02 02:33:09;;;;;;;12.90;5.93;;;11.50;99.90;;;;;;4986546;28;20120;-68
2022/08/02 02:35:37;;;;;;;11.82;5.80;;;11.60;99.90;;;;;;5009655;28;20495;-68
2022/08/02 02:38:06;;;;;;;13.23;6.00;;;11.60;99.90;;;;;;5001276;28;20050;-67
2022/08/02 02:40:34;;;;;;;12.68;5.88;;;11.60;99.90;;;;;;4997869;28;20060;-67
2022/08/02 02:43:01;;;;;;;11.98;5.38;;;11.60;99.90;;;;;;4991076;28;20078;-67
2022/08/02 02:45:29;;;;;;;12.90;6.20;;;11.50;99.90;;;;;;5012593;28;20065;-70
2022/08/02 02:47:55;;;;;;;11.55;6.32;;;11.50;99.90;;;;;;5013582;28;20058;-68
2022/08/02 02:50:23;;;;;;;15.60;6.57;;;11.60;99.90;;;;;;5011650;28;20124;-68
2022/08/02 02:52:49;;;;;;;13.57;6.10;;;11.60;99.90;;;;;;5009183;28;20456;-71
2022/08/02 02:55:17;;;;;;;15.30;6.30;;;11.60;99.90;;;;;;4997016;28;20050;-70
2022/08/02 02:57:43;;;;;;;11.48;5.88;;;11.60;99.90;;;;;;4995580;28;20516;-69
2022/08/02 03:00:12;;;;;;;15.02;6.43;;;11.60;99.90;;;;;;5005273;28;20148;-69
2022/08/02 03:02:40;;;;;;;12.52;6.60;;;11.50;99.90;;;;;;5014936;28;20041;-69
2022/08/02 03:05:08;;;;;;;15.05;6.78;;;11.50;99.90;;;;;;5012913;28;20053;-68
2022/08/02 03:07:34;;;;;;;17.25;7.05;;;11.50;99.90;;;;;;4990027;28;20349;-71
2022/08/02 03:10:02;;;;;;;10.27;6.45;;;11.50;99.90;;;;;;5004681;28;20038;-71
2022/08/02 03:12:28;;;;;;;15.50;6.70;;;11.40;99.90;;;;;;5009494;28;20451;-70
2022/08/02 03:14:56;;;;;;;10.75;6.10;;;11.40;99.90;;;;;;4993338;28;20045;-68
2022/08/02 03:17:22;;;;;;;11.23;5.97;;;11.40;99.90;;;;;;5013284;28;20088;-68
2022/08/02 03:19:48;;;;;;;15.05;6.70;;;11.40;99.90;;;;;;5012010;28;20045;-69
2022/08/02 03:22:14;;;;;;;14.50;6.97;;;11.40;99.90;;;;;;5013039;28;20065;-69
2022/08/02 03:24:40;;;;;;;14.82;6.82;;;11.40;99.90;;;;;;5012894;28;20051;-69
2022/08/02 03:27:06;;;;;;;13.38;6.40;;;11.30;99.90;;;;;;5012464;28;20046;-68
2022/08/02 03:29:31;;;;;;;13.70;6.45;;;11.30;99.90;;;;;;5011216;28;20081;-68
2022/08/02 03:31:58;;;;;;;13.48;6.50;;;11.30;99.90;;;;;;5012604;28;20103;-69
2022/08/02 03:34:24;;;;;;;12.00;6.38;;;11.40;99.90;;;;;;5001576;28;20050;-71
2022/08/02 03:36:53;;;;;;;17.48;7.40;;;11.40;99.90;;;;;;5012587;28;20041;-69
2022/08/02 03:39:20;;;;;;;12.23;6.35;;;11.40;99.90;;;;;;5008253;28;20062;-69
2022/08/02 03:41:48;;;;;;;12.35;6.72;;;11.40;99.90;;;;;;4996210;28;20046;-70
2022/08/02 03:44:15;;;;;;;16.33;6.50;;;11.40;99.90;;;;;;5007218;28;20418;-70
2022/08/02 03:46:42;;;;;;;16.00;6.43;;;11.40;99.90;;;;;;4995640;28;20520;-68
2022/08/02 03:49:09;;;;;;;13.23;6.50;;;11.40;99.90;;;;;;5010485;28;20480;-67
2022/08/02 03:51:35;;;;;;;12.93;6.60;;;11.40;99.90;;;;;;4994685;28;20054;-68
2022/08/02 03:54:02;;;;;;;11.07;6.13;;;11.40;99.90;;;;;;5011196;28;20064;-68
2022/08/02 03:56:29;;;;;;;14.95;6.35;;;11.40;99.90;;;;;;5011567;28;20510;-68
2022/08/02 03:59:09;;;;;;;12.35;6.05;;;11.40;99.90;;;;;;5011047;28;20119;-67
2022/08/02 04:01:36;;;;;;;14.15;6.45;;;11.40;99.90;;;;;;4995642;28;20081;-67
2022/08/02 04:04:02;;;;;;;13.93;6.78;;;11.40;99.90;;;;;;5012117;28;20084;-67
2022/08/02 04:06:28;;;;;;;11.82;6.25;;;11.50;99.90;;;;;;5012139;28;20129;-69
2022/08/02 04:08:54;;;;;;;12.35;6.47;;;11.50;99.90;;;;;;5010624;28;20034;-68
2022/08/02 04:11:32;;;;;;;15.48;7.00;;;11.50;99.90;;;;;;5011693;28;20049;-68
2022/08/02 04:14:01;;;;;;;14.80;6.75;;;11.50;99.90;;;;;;5012192;28;20042;-68
2022/08/02 04:16:41;;;;;;;14.75;6.85;;;11.50;99.90;;;;;;4996087;28;20049;-70
2022/08/02 04:19:19;;;;;;;14.65;7.03;;;11.50;99.90;;;;;;4993337;28;20069;-68
2022/08/02 04:21:47;;;;;;;14.77;7.03;;;11.60;99.90;;;;;;4990223;28;20049;-70
2022/08/02 04:24:16;;;;;;;14.23;6.82;;;11.60;99.90;;;;;;4994329;28;20480;-69
2022/08/02 04:26:43;;;;;;;16.15;7.13;;;11.70;99.90;;;;;;5011053;28;20100;-68
2022/08/02 04:29:11;;;;;;;14.40;6.32;;;11.70;99.90;;;;;;5009469;28;20052;-68
2022/08/02 04:31:39;;;;;;;14.10;6.88;;;11.70;99.90;;;;;;5011830;28;20088;-68
2022/08/02 04:34:05;;;;;;;18.55;6.45;;;11.70;99.90;;;;;;4995965;28;20057;-68
2022/08/02 04:36:32;;;;;;;16.30;6.47;;;11.80;99.90;;;;;;4995577;28;20503;-68
2022/08/02 04:38:58;;;;;;;13.85;7.05;;;11.80;99.90;;;;;;5009878;28;20084;-69
2022/08/02 04:41:36;;;;;;;16.42;6.93;;;11.80;99.90;;;;;;5014240;28;20050;-68
2022/08/02 04:44:02;;;;;;;18.20;7.05;;;11.80;99.90;;;;;;4994323;28;20053;-68
2022/08/02 04:46:29;;;;;;;18.02;7.10;;;11.80;99.90;;;;;;4995301;28;20053;-68
2022/08/02 04:48:55;;;;;;;16.83;7.32;;;11.90;99.90;;;;;;4994080;28;20488;-68
2022/08/02 04:51:21;;;;;;;12.73;6.65;;;11.90;99.90;;;;;;5010299;28;20103;-70
2022/08/02 04:53:48;;;;;;;12.23;6.25;;;12.00;99.90;;;;;;5011612;28;20049;-68
2022/08/02 04:56:14;;;;;;;15.10;7.00;;;12.00;99.90;;;;;;5011735;28;20042;-68
2022/08/02 04:58:40;;;;;;;16.70;7.07;;;12.10;99.90;;;;;;5008204;28;20111;-68
2022/08/02 05:01:06;;;;;;;17.13;6.95;;;12.10;99.90;;;;;;5010617;28;20044;-67
2022/08/02 05:03:32;;;;;;;12.52;6.93;;;12.10;99.90;;;;;;4994295;28;20050;-69
2022/08/02 05:05:59;;;;;;;14.90;7.07;;;12.30;99.90;;;;;;4994798;28;20132;-69
2022/08/02 05:08:25;;;;;;;16.42;7.05;;;12.30;99.90;;;;;;5009225;28;20133;-67
2022/08/02 05:10:51;;;;;;;10.85;6.35;;;12.40;99.90;;;;;;5026104;28;20045;-70
2022/08/02 05:13:17;;;;;;;18.42;7.05;;;12.50;99.90;;;;;;4982966;28;20506;-68
2022/08/02 05:15:43;;;;;;;16.65;6.82;;;12.60;99.90;;;;;;4990390;28;20057;-68
2022/08/02 05:18:09;;;;;;;12.43;7.45;;;12.60;99.90;;;;;;5003255;28;20476;-68
2022/08/02 05:20:35;;;;;;;13.82;7.40;;;12.70;99.90;;;;;;5007966;28;20455;-68
2022/08/02 05:23:02;;;;;;;10.80;6.50;;;12.90;99.90;;;;;;5011067;28;20053;-68
2022/08/02 05:25:28;;;;;;;15.05;6.82;;;12.90;99.90;;;;;;5010195;28;20121;-69
2022/08/02 05:27:54;;;;;;;16.40;6.63;;;13.00;99.90;;;;;;4977540;28;20205;-68
2022/08/02 05:30:19;;;;;;;14.02;6.53;;;13.10;99.90;;;;;;5002736;28;20539;-69
2022/08/02 05:32:47;;;;;;;14.00;7.32;;;13.20;99.90;;;;;;4994718;28;20068;-68
2022/08/02 05:35:18;;;;;;;13.27;6.45;;;13.30;99.90;;;;;;4990182;28;20112;-68
2022/08/02 05:37:44;;;;;;;14.47;7.00;;;13.40;99.90;;;;;;4991967;28;20125;-74
2022/08/02 05:40:11;;;;;;;13.65;6.95;;;13.50;99.90;;;;;;4991325;28;20172;-69
2022/08/02 05:42:40;;;;;;;15.70;7.47;;;13.60;99.90;;;;;;5011128;28;20046;-69
2022/08/02 05:45:07;;;;;;;14.38;6.95;;;13.70;99.90;;;;;;5006199;28;20046;-70
2022/08/02 05:47:33;;;;;;;13.43;6.70;;;13.80;99.90;;;;;;5010655;28;20046;-68
2022/08/02 05:49:59;;;;;;;15.25;7.18;;;14.00;99.90;;;;;;4991849;28;20041;-68
2022/08/02 05:52:33;;;;;;;14.82;7.15;;;14.10;99.90;;;;;;4993798;28;20064;-70
2022/08/02 05:55:25;;;;;;;11.90;5.97;;;14.20;99.90;;;;;;5044793;28;20135;-69
2022/08/02 05:58:09;;;;;;;17.08;7.15;;;14.30;99.90;;;;;;5010683;28;20038;-71
2022/08/02 06:00:38;;;;;;;14.82;7.07;;;14.40;99.90;;;;;;5007191;28;20180;-68
2022/08/02 06:03:25;;;;;;;15.80;6.45;;;14.50;99.90;;;;;;5009794;28;20127;-69
2022/08/02 06:06:03;;;;;;;13.70;7.05;;;14.70;99.90;;;;;;4993947;28;20129;-69
2022/08/02 06:08:37;;;;;;;12.38;6.72;;;14.80;99.90;;;;;;5010665;28;20045;-69
2022/08/02 06:11:05;;;;;;;15.60;7.28;;;14.90;99.90;;;;;;5008352;28;20062;-69
2022/08/02 06:13:32;;;;;;;12.07;6.70;;;15.00;99.90;;;;;;5010313;28;20046;-68
2022/08/02 06:15:58;;;;;;;13.50;6.93;;;15.10;99.90;;;;;;5012293;28;20045;-69
2022/08/02 06:18:27;;;;;;;15.18;7.25;;;15.30;99.90;;;;;;5013514;28;20458;-68
2022/08/02 06:20:57;;;;;;;11.68;7.25;;;15.30;99.90;;;;;;5012429;28;20086;-67
2022/08/02 06:23:24;;;;;;;12.90;6.47;;;15.50;99.90;;;;;;4997853;28;20119;-68
2022/08/02 06:25:52;;;;;;;14.65;7.25;;;15.60;99.90;;;;;;5011621;28;20042;-67
2022/08/02 06:28:19;;;;;;;17.25;7.00;;;15.70;99.90;;;;;;4998092;28;20046;-72
2022/08/02 06:30:46;;;;;;;12.45;6.40;;;15.80;99.90;;;;;;5011656;28;20392;-69
2022/08/02 06:33:12;;;;;;;14.77;7.10;;;16.00;99.90;;;;;;5012835;28;20041;-68
2022/08/02 06:35:50;;;;;;;13.77;6.20;;;16.10;99.90;;;;;;4997257;28;20096;-67
2022/08/02 06:38:23;;;;;;;12.88;6.50;;;16.20;99.90;;;;;;4998905;28;20534;-68
2022/08/02 06:40:59;;;;;;;14.43;6.72;;;16.40;99.90;;;;;;5011426;28;20045;-71
2022/08/02 06:43:41;;;;;;;17.55;6.70;;;16.40;99.90;;;;;;5013605;28;20062;-69
2022/08/02 06:46:08;;;;;;;11.50;6.60;;;16.60;99.90;;;;;;5013068;28;20135;-68
2022/08/02 06:48:35;;;;;;;11.43;6.30;;;16.70;99.90;;;;;;5014035;28;20050;-68
2022/08/02 06:51:05;;;;;;;13.80;6.30;;;16.80;99.90;;;;;;5014010;28;20049;-68
2022/08/02 06:53:31;;;;;;;12.10;6.15;;;16.90;99.90;;;;;;5013498;28;20037;-67
2022/08/02 06:55:57;;;;;;;9.40;5.72;;;16.90;99.90;;;;;;5013009;28;20045;-69
2022/08/02 06:58:23;;;;;;;13.18;5.80;;;17.00;99.90;;;;;;5005502;28;20081;-68
2022/08/02 07:00:49;;;;;;;9.93;5.88;;;17.10;99.90;;;;;;5011273;28;20095;-68
2022/08/02 07:03:16;;;;;;;19.38;5.63;;;17.20;99.90;;;;;;5025800;28;20129;-68
2022/08/02 07:05:47;;;;;;;12.57;5.70;;;17.20;99.90;;;;;;5010263;28;20547;-67
2022/08/02 07:08:16;;;;;;;12.60;5.43;;;17.30;99.90;;;;;;5025909;28;20047;-69
2022/08/02 07:10:42;;;;;;;10.73;5.55;;;17.50;99.90;;;;;;5007337;28;20404;-68
2022/08/02 07:13:09;;;;;;;9.88;4.72;;;17.60;99.90;;;;;;5013152;28;20084;-68
2022/08/02 07:15:36;;;;;;;10.02;4.68;;;17.70;99.90;;;;;;4996344;28;20488;-71
2022/08/02 07:18:02;;;;;;;12.15;5.20;;;18.00;99.90;;;;;;4997022;28;20049;-68
2022/08/02 07:20:28;;;;;;;12.95;4.88;;;18.10;99.90;;;;;;4996578;28;20041;-69
2022/08/02 07:22:54;;;;;;;10.07;5.13;;;18.30;99.90;;;;;;5002694;28;20145;-68
2022/08/02 07:25:21;;;;;;;10.55;4.88;;;18.40;99.90;;;;;;5013177;28;20049;-69
2022/08/02 07:27:47;;;;;;;9.88;4.72;;;18.60;99.90;;;;;;5012170;28;20045;-68
2022/08/02 07:30:13;;;;;;;9.35;4.60;;;18.70;99.90;;;;;;5011774;28;20054;-68
2022/08/02 07:32:42;;;;;;;11.52;4.40;;;18.80;99.90;;;;;;5013113;28;20057;-68
2022/08/02 07:35:09;;;;;;;9.00;4.13;;;18.90;99.90;;;;;;5020034;28;20076;-69
2022/08/02 07:37:37;;;;;;;10.00;4.28;;;19.00;99.90;;;;;;5027971;28;20144;-68
2022/08/02 07:40:05;;;;;;;9.65;4.30;;;19.10;99.90;;;;;;5013709;28;20530;-68
2022/08/02 07:42:32;;;;;;;11.95;4.78;;;19.00;99.90;;;;;;5045742;28;20041;-68
2022/08/02 07:45:00;;;;;;;7.32;3.88;;;19.20;99.90;;;;;;5010525;28;20104;-68
2022/08/02 07:47:26;;;;;;;8.98;4.47;;;19.30;99.90;;;;;;5011252;28;20394;-69
2022/08/02 07:49:53;;;;;;;9.63;3.85;;;19.30;99.90;;;;;;5010929;28;20480;-71
2022/08/02 07:52:19;;;;;;;8.60;3.72;;;19.40;99.90;;;;;;5004996;28;20114;-71
2022/08/02 07:54:45;;;;;;;7.95;3.90;;;19.50;99.90;;;;;;5012642;28;20050;-68
2022/08/02 07:57:12;;;;;;;7.45;3.10;;;19.60;99.90;;;;;;5009634;28;20172;-69
2022/08/02 07:59:38;;;;;;;6.97;3.17;;;19.80;99.90;;;;;;4994798;28;20145;-68
2022/08/02 08:02:04;;;;;;;8.77;3.78;;;20.00;99.90;;;;;;5012095;28;20059;-70
2022/08/02 08:04:30;;;;;;;6.05;3.45;;;20.10;99.90;;;;;;5012392;28;20042;-69
2022/08/02 08:06:57;;;;;;;6.10;3.40;;;20.20;99.90;;;;;;5008650;28;20046;-68
2022/08/02 08:09:23;;;;;;;6.03;3.03;;;20.40;99.90;;;;;;5010824;28;20092;-69
2022/08/02 08:11:49;;;;;;;9.00;3.35;;;20.60;99.90;;;;;;5011924;28;20396;-71
2022/08/02 08:14:15;;;;;;;9.18;3.42;;;20.60;99.90;;;;;;5012377;28;20050;-69
2022/08/02 08:16:42;;;;;;;7.88;2.95;;;20.80;99.90;;;;;;4988511;28;20377;-70
2022/08/02 08:19:11;;;;;;;7.38;3.10;;;21.00;99.90;;;;;;5010012;28;20092;-69
2022/08/02 08:21:37;;;;;;;6.18;2.63;;;21.00;99.90;;;;;;5008412;28;20445;-69
2022/08/02 08:24:03;;;;;;;5.95;2.90;;;21.20;99.90;;;;;;4995856;28;20041;-70
2022/08/02 08:26:29;;;;;;;4.95;2.33;;;21.40;99.90;;;;;;4997022;28;20046;-70
2022/08/02 08:28:56;;;;;;;5.10;2.40;;;21.40;99.90;;;;;;5017865;28;20050;-70
2022/08/02 08:31:22;;;;;;;4.80;2.17;;;21.60;99.90;;;;;;5013943;28;20454;-70
2022/08/02 08:33:48;;;;;;;6.68;2.20;;;21.60;99.90;;;;;;5024545;28;20103;-70
2022/08/02 08:36:15;;;;;;;5.13;2.33;;;21.60;99.90;;;;;;4994907;28;20138;-70
2022/08/02 08:38:41;;;;;;;5.50;2.30;;;21.60;99.90;;;;;;5011877;28;20550;-69
2022/08/02 08:41:07;;;;;;;3.70;2.03;;;21.90;99.90;;;;;;5018739;28;20045;-69
2022/08/02 08:43:33;;;;;;;5.57;2.08;;;22.00;99.90;;;;;;5021292;28;20116;-70
2022/08/02 08:45:59;;;;;;;7.93;2.20;;;22.10;99.90;;;;;;4995036;28;20050;-69
2022/08/02 08:48:26;;;;;;;6.00;1.95;;;22.30;99.90;;;;;;4995463;28;20153;-70
2022/08/02 08:50:58;;;;;;;5.88;2.25;;;22.30;99.90;;;;;;4995286;28;20419;-70
2022/08/02 08:53:26;;;;;;;6.88;1.75;;;22.50;99.90;;;;;;5006065;28;20054;-69
2022/08/02 08:55:55;;;;;;;3.10;1.50;;;22.50;99.90;;;;;;4995253;28;20084;-69
2022/08/02 08:58:21;;;;;;;3.22;1.60;;;22.50;99.90;;;;;;5011573;28;20049;-69
2022/08/02 09:00:47;;;;;;;5.28;1.70;;;22.50;99.90;;;;;;5010422;28;20050;-71
2022/08/02 09:03:13;;;;;;;2.58;1.80;;;22.50;99.90;;;;;;5020684;28;20045;-69
2022/08/02 09:05:41;;;;;;;6.28;1.90;;;22.50;99.90;;;;;;5024565;28;20140;-70
2022/08/02 09:08:07;;;;;;;3.63;1.30;;;22.40;99.90;;;;;;5027668;28;20446;-69
2022/08/02 09:10:41;;;;;;;2.95;1.48;;;22.30;99.90;;;;;;5010614;28;20412;-70
2022/08/02 09:13:11;;;;;;;3.13;1.48;;;22.30;98.60;;;;;;5022619;28;20053;-70
2022/08/02 09:15:39;;;;;;;2.80;1.50;;;22.40;98.00;;;;;;5013476;28;20049;-70
2022/08/02 09:18:06;;;;;;;2.58;1.40;;;22.50;98.80;;;;;;4994877;28;20057;-71
2022/08/02 09:20:34;;;;;;;2.75;1.35;;;22.50;97.40;;;;;;4994450;28;20124;-70
2022/08/02 09:23:08;;;;;;;2.47;1.38;;;22.50;96.00;;;;;;4998657;28;20060;-70
2022/08/02 09:25:34;;;;;;;2.38;1.60;;;22.60;95.80;;;;;;5017903;28;20120;-69
2022/08/02 09:28:03;;;;;;;3.67;1.85;;;22.80;97.00;;;;;;5011169;28;20053;-69
2022/08/02 09:30:41;;;;;;;2.90;1.42;;;22.80;94.60;;;;;;5010588;28;20045;-69
2022/08/02 09:33:08;;;;;;;2.53;1.15;;;22.90;94.00;;;;;;5010981;28;20121;-70
2022/08/02 09:35:36;;;;;;;1.90;1.10;;;23.20;94.90;;;;;;5013991;28;20049;-69
2022/08/02 09:38:13;;;;;;;3.40;1.20;;;23.40;92.70;;;;;;5022085;28;20496;-72
2022/08/02 09:40:40;;;;;;;1.80;1.23;;;23.40;84.50;;;;;;5021755;28;20487;-69
2022/08/02 09:43:07;;;;;;;4.05;1.33;;;23.50;88.10;;;;;;5012909;28;20050;-70
2022/08/02 09:45:35;;;;;;;2.05;1.30;;;23.80;91.00;;;;;;4994426;28;20061;-70
2022/08/02 09:48:05;;;;;;;2.35;1.20;;;24.00;87.20;;;;;;5016687;28;20107;-69
2022/08/02 09:50:31;;;;;;;2.47;1.35;;;24.10;84.60;;;;;;5009942;28;20496;-69
2022/08/02 09:52:57;;;;;;;2.60;1.30;;;24.30;89.60;;;;;;5010859;28;20060;-71
2022/08/02 09:55:25;;;;;;;2.72;1.30;;;24.30;86.30;;;;;;4994492;28;20056;-71
2022/08/02 09:57:51;;;;;;;2.72;1.45;;;24.40;80.40;;;;;;5019865;28;20041;-71
2022/08/02 10:00:18;;;;;;;2.65;1.40;;;24.40;83.80;;;;;;5002048;28;20144;-70
2022/08/02 10:03:07;;;;;;;3.58;1.40;;;24.50;84.40;;;;;;5010987;28;20045;-70
2022/08/02 10:05:52;;;;;;;3.63;1.40;;;24.60;81.00;;;;;;5010549;28;20053;-69
2022/08/02 10:08:19;;;;;;;4.78;1.40;;;24.70;80.80;;;;;;5016494;28;20114;-71
2022/08/02 10:10:45;;;;;;;4.82;1.60;;;24.70;84.00;;;;;;5012759;28;20042;-70
2022/08/02 10:13:13;;;;;;;6.13;1.80;;;24.60;86.60;;;;;;5010517;28;20046;-70
2022/08/02 10:15:39;;;;;;;4.18;1.50;;;24.40;85.80;;;;;;5010535;28;20081;-70
2022/08/02 10:18:06;;;;;;;2.55;1.50;;;24.40;87.60;;;;;;5013887;28;20091;-69
2022/08/02 10:20:40;;;;;;;3.22;1.58;;;24.40;85.70;;;;;;4995504;28;20484;-70
2022/08/02 10:23:09;;;;;;;2.40;1.60;;;24.40;88.00;;;;;;5010661;28;20121;-70
2022/08/02 10:25:37;;;;;;;4.60;1.90;;;24.60;90.00;;;;;;4994084;28;20065;-70
2022/08/02 10:28:05;;;;;;;3.30;2.10;;;24.70;88.80;;;;;;5013777;28;20050;-70
2022/08/02 10:30:33;;;;;;;3.08;1.80;;;24.70;89.40;;;;;;5016460;28;20052;-70
2022/08/02 10:33:01;;;;;;;4.35;2.33;;;24.60;87.30;;;;;;4999969;28;20168;-70
2022/08/02 10:35:30;;;;;;;6.25;2.17;;;24.80;89.10;;;;;;5010534;28;20054;-69
2022/08/02 10:38:02;;;;;;;4.35;2.40;;;24.70;89.80;;;;;;4992887;28;20072;-71
2022/08/02 10:40:55;;;;;;;4.70;2.30;;;24.60;88.40;;;;;;5014636;28;20050;-69
2022/08/02 10:43:36;;;;;;;6.07;2.63;;;24.80;90.80;;;;;;5005029;28;20045;-70
2022/08/02 10:46:20;;;;;;;;;;;25.10;91.40;;;;;;5009653;28;20416;-69
2022/08/02 10:49:08;;;;;;;3.65;2.45;;;25.40;90.30;;;;;;5008782;28;19926;-70
2022/08/02 10:52:01;;;;;;;4.20;2.78;;;25.40;90.40;;;;;;5007899;28;20116;-70
2022/08/02 10:54:39;;;;;;;3.38;2.55;;;25.50;90.00;;;;;;5009907;28;20092;-69
2022/08/02 10:57:20;;;;;;;4.50;2.53;;;25.70;88.50;;;;;;4986402;28;20143;-69
2022/08/02 10:59:48;;;;;;;6.15;2.85;;;26.00;90.30;;;;;;5036773;28;20879;-70
2022/08/02 11:02:39;;;;;;;7.03;2.70;;;26.30;90.40;;;;;;5012002;28;20050;-69
2022/08/02 11:05:09;;;;;;;3.33;2.60;;;26.40;87.90;;;;;;5044602;28;20062;-70
2022/08/02 11:07:46;;;;;;;5.65;2.95;;;26.30;87.60;;;;;;5015475;28;20508;-68
2022/08/02 11:10:36;;;;;;;4.50;2.75;;;26.00;87.80;;;;;;5012840;28;20050;-68
2022/08/02 11:13:14;;;;;;;3.70;2.70;;;26.10;88.30;;;;;;5005338;28;20531;-69
2022/08/02 11:16:03;;;;;;;6.30;3.13;;;26.30;88.80;;;;;;5013332;28;20053;-68
2022/08/02 11:18:50;;;;;;;6.82;3.10;;;25.90;88.00;;;;;;5014047;28;20058;-69
2022/08/02 11:21:27;;;;;;;5.68;2.88;;;26.10;87.30;;;;;;5043875;28;20068;-68
2022/08/02 11:23:54;;;;;;;4.20;2.85;;;26.20;88.50;;;;;;5012748;28;20052;-68
2022/08/02 11:26:30;;;;;;;4.70;3.00;;;26.40;90.40;;;;;;5012757;28;20515;-68
2022/08/02 11:28:57;;;;;;;5.47;2.70;;;26.80;89.00;;;;;;5013194;28;20059;-67
2022/08/02 11:31:23;;;;;;;3.55;2.75;;;26.90;89.20;;;;;;5017222;28;20387;-68
2022/08/02 11:33:51;;;;;;;5.35;3.45;;;27.20;90.50;;;;;;5024649;28;20054;-69
2022/08/02 11:36:18;;;;;;;6.85;3.25;;;27.00;88.50;;;;;;5012258;28;20052;-69
2022/08/02 11:38:44;;;;;;;5.18;3.38;;;27.00;87.60;;;;;;4996396;28;20049;-69
2022/08/02 11:41:23;;;;;;;3.63;3.13;;;26.90;87.50;;;;;;4996127;28;20050;-71
2022/08/02 11:43:54;;;;;;;4.35;3.20;;;26.90;89.30;;;;;;5019591;28;20057;-70
2022/08/02 11:46:20;;;;;;;5.78;3.30;;;26.90;87.60;;;;;;5028610;28;20068;-72
2022/08/02 11:48:46;;;;;;;6.80;3.30;;;27.00;88.00;;;;;;5015989;28;20042;-71
2022/08/02 11:51:14;;;;;;;6.47;3.58;;;26.80;88.30;;;;;;5008486;28;20468;-71
2022/08/02 11:53:49;;;;;;;8.02;4.03;;;26.90;90.30;;;;;;5009066;28;20045;-70
2022/08/02 11:56:17;;;;;;;4.00;3.60;;;27.00;89.80;;;;;;4998597;28;20502;-72
2022/08/02 11:59:07;;;;;;;6.72;3.50;;;27.10;90.30;;;;;;4993572;28;20492;-70
2022/08/02 12:01:35;;;;;;;3.90;3.45;;;27.20;87.40;;;;;;5011516;28;20038;-71
2022/08/02 12:04:02;;;;;;;6.88;3.78;;;27.40;89.60;;;;;;5011313;28;20081;-70
2022/08/02 12:06:30;;;;;;;6.82;3.47;;;27.70;88.60;;;;;;5012356;28;20050;-70
2022/08/02 12:09:06;;;;;;;7.20;3.97;;;27.80;86.90;;;;;;5010739;28;20041;-71
2022/08/02 12:11:33;;;;;;;5.78;3.22;;;27.70;87.20;;;;;;5016882;28;20057;-72
2022/08/02 12:13:59;;;;;;;4.70;2.92;;;27.70;86.90;;;;;;5002502;28;20099;-71
2022/08/02 12:19:25;;;;;;;3.50;2.92;;;27.50;85.20;;;;;;5011809;28;20088;-70
2022/08/02 12:22:18;;;;;;;4.50;2.92;;;27.30;84.20;;;;;;5012220;28;20046;-71
2022/08/02 12:24:50;;;;;;;5.35;3.00;;;27.40;84.00;;;;;;4996083;28;20058;-74
2022/08/02 12:27:34;;;;;;;4.93;3.40;;;27.30;83.60;;;;;;5019607;28;20124;-70
2022/08/02 12:30:06;;;;;;;5.40;3.00;;;27.40;85.20;;;;;;4994719;28;20404;-71
2022/08/02 12:32:32;;;;;;;4.22;3.08;;;27.60;87.20;;;;;;5012803;28;20082;-73
2022/08/02 12:35:06;;;;;;;4.55;3.08;;;27.50;86.00;;;;;;5011633;28;20053;-72
2022/08/02 12:37:32;;;;;;;5.60;3.15;;;27.50;85.60;;;;;;5026626;28;20518;-74
2022/08/02 12:40:28;;;;;;;5.22;3.35;;;27.40;86.60;;;;;;5011483;28;20061;-71
2022/08/02 12:42:59;;;;;;;5.35;3.20;;;27.40;86.90;;;;;;5014861;28;20125;-71
2022/08/02 12:45:28;;;;;;;5.63;3.42;;;27.40;86.80;;;;;;4997521;28;20053;-71
2022/08/02 12:47:56;;;;;;;3.75;3.00;;;27.20;86.50;;;;;;5010483;28;20049;-70
2022/08/02 12:50:28;;;;;;;7.70;3.28;;;27.20;87.40;;;;;;5010721;28;21517;-71
2022/08/02 12:53:06;;;;;;;5.60;3.60;;;27.00;89.30;;;;;;5027275;28;20049;-71
2022/08/02 12:55:32;;;;;;;5.20;3.65;;;26.90;88.00;;;;;;5029957;28;20120;-73
2022/08/02 12:58:00;;;;;;;6.43;3.67;;;26.90;89.20;;;;;;5020240;28;20046;-75